<?xml version="1.0" encoding="UTF-8" standalone="no" ?>
<gpx xmlns="http://www.topografix.com/GPX/1/1" xmlns:xsi="http://www.w3.org/2001/XMLSchema-instance" xsi:schemaLocation="http://www.topografix.com/GPX/1/1 http://www.topografix.com/GPX/1/1/gpx.xsd" version="1.1" creator="VisuGPX - https://www.visugpx.com">
  <metadata>
    <name>Etape 4-3_Col de la Core</name>
  </metadata>
  <trk>
    <name><![CDATA[Etape 4_Bagnères de Luchon _Ercé_Variante 127 kms_3075 D+ ]]></name>
    <extensions>
      <line xmlns="http://www.topografix.com/GPX/gpx_style/0/2">
        <color>0000FF</color>
        <width>4</width>
      </line>
    </extensions>
    <trkseg>
      <trkpt lat="42.92788" lon="1.02584">
        <ele>511</ele>
        <time>2021-08-20T18:59:15Z</time>
      </trkpt>
      <trkpt lat="42.92882" lon="1.02971">
        <ele>532</ele>
        <time>2021-08-20T19:00:08Z</time>
      </trkpt>
      <trkpt lat="42.92831" lon="1.02979">
        <ele>533</ele>
        <time>2021-08-20T19:00:17Z</time>
      </trkpt>
      <trkpt lat="42.92726" lon="1.02973">
        <ele>536</ele>
        <time>2021-08-20T19:00:36Z</time>
      </trkpt>
      <trkpt lat="42.92641" lon="1.0296">
        <ele>539</ele>
        <time>2021-08-20T19:00:51Z</time>
      </trkpt>
      <trkpt lat="42.92571" lon="1.02961">
        <ele>541</ele>
        <time>2021-08-20T19:01:03Z</time>
      </trkpt>
      <trkpt lat="42.92503" lon="1.0299">
        <ele>545</ele>
        <time>2021-08-20T19:01:16Z</time>
      </trkpt>
      <trkpt lat="42.92247" lon="1.03138">
        <ele>545</ele>
        <time>2021-08-20T19:02:05Z</time>
      </trkpt>
      <trkpt lat="42.92209" lon="1.03149">
        <ele>546</ele>
        <time>2021-08-20T19:02:12Z</time>
      </trkpt>
      <trkpt lat="42.92143" lon="1.03154">
        <ele>548</ele>
        <time>2021-08-20T19:02:24Z</time>
      </trkpt>
      <trkpt lat="42.92129" lon="1.03152">
        <ele>549</ele>
        <time>2021-08-20T19:02:27Z</time>
      </trkpt>
      <trkpt lat="42.91898" lon="1.03128">
        <ele>552</ele>
        <time>2021-08-20T19:03:08Z</time>
      </trkpt>
      <trkpt lat="42.91838" lon="1.03118">
        <ele>552</ele>
        <time>2021-08-20T19:03:19Z</time>
      </trkpt>
      <trkpt lat="42.91813" lon="1.03097">
        <ele>552</ele>
        <time>2021-08-20T19:03:24Z</time>
      </trkpt>
      <trkpt lat="42.9179" lon="1.03084">
        <ele>552</ele>
        <time>2021-08-20T19:03:28Z</time>
      </trkpt>
      <trkpt lat="42.91629" lon="1.03022">
        <ele>557</ele>
        <time>2021-08-20T19:03:58Z</time>
      </trkpt>
      <trkpt lat="42.91558" lon="1.02954">
        <ele>557</ele>
        <time>2021-08-20T19:04:13Z</time>
      </trkpt>
      <trkpt lat="42.9152" lon="1.02944">
        <ele>562</ele>
        <time>2021-08-20T19:04:20Z</time>
      </trkpt>
      <trkpt lat="42.9146" lon="1.02905">
        <ele>561</ele>
        <time>2021-08-20T19:04:32Z</time>
      </trkpt>
      <trkpt lat="42.91392" lon="1.02899">
        <ele>567</ele>
        <time>2021-08-20T19:04:44Z</time>
      </trkpt>
      <trkpt lat="42.91331" lon="1.02856">
        <ele>567</ele>
        <time>2021-08-20T19:04:56Z</time>
      </trkpt>
      <trkpt lat="42.91317" lon="1.02854">
        <ele>568</ele>
        <time>2021-08-20T19:04:59Z</time>
      </trkpt>
      <trkpt lat="42.91273" lon="1.02862">
        <ele>572</ele>
        <time>2021-08-20T19:05:07Z</time>
      </trkpt>
      <trkpt lat="42.9125" lon="1.02859">
        <ele>574</ele>
        <time>2021-08-20T19:05:11Z</time>
      </trkpt>
      <trkpt lat="42.91227" lon="1.02851">
        <ele>571</ele>
        <time>2021-08-20T19:05:15Z</time>
      </trkpt>
      <trkpt lat="42.9121" lon="1.0285">
        <ele>571</ele>
        <time>2021-08-20T19:05:18Z</time>
      </trkpt>
      <trkpt lat="42.91182" lon="1.02869">
        <ele>573</ele>
        <time>2021-08-20T19:05:24Z</time>
      </trkpt>
      <trkpt lat="42.91119" lon="1.02919">
        <ele>576</ele>
        <time>2021-08-20T19:05:37Z</time>
      </trkpt>
      <trkpt lat="42.91075" lon="1.02939">
        <ele>580</ele>
        <time>2021-08-20T19:05:45Z</time>
      </trkpt>
      <trkpt lat="42.91033" lon="1.02951">
        <ele>582</ele>
        <time>2021-08-20T19:05:53Z</time>
      </trkpt>
      <trkpt lat="42.91" lon="1.02947">
        <ele>579</ele>
        <time>2021-08-20T19:05:59Z</time>
      </trkpt>
      <trkpt lat="42.90963" lon="1.02934">
        <ele>575</ele>
        <time>2021-08-20T19:06:05Z</time>
      </trkpt>
      <trkpt lat="42.90946" lon="1.02922">
        <ele>571</ele>
        <time>2021-08-20T19:06:09Z</time>
      </trkpt>
      <trkpt lat="42.9093" lon="1.02917">
        <ele>569</ele>
        <time>2021-08-20T19:06:12Z</time>
      </trkpt>
      <trkpt lat="42.90865" lon="1.02912">
        <ele>567</ele>
        <time>2021-08-20T19:06:23Z</time>
      </trkpt>
      <trkpt lat="42.90814" lon="1.02914">
        <ele>566</ele>
        <time>2021-08-20T19:06:32Z</time>
      </trkpt>
      <trkpt lat="42.90751" lon="1.0291">
        <ele>565</ele>
        <time>2021-08-20T19:06:44Z</time>
      </trkpt>
      <trkpt lat="42.90728" lon="1.02905">
        <ele>570</ele>
        <time>2021-08-20T19:06:48Z</time>
      </trkpt>
      <trkpt lat="42.90672" lon="1.02879">
        <ele>578</ele>
        <time>2021-08-20T19:06:58Z</time>
      </trkpt>
      <trkpt lat="42.90594" lon="1.02834">
        <ele>567</ele>
        <time>2021-08-20T19:07:13Z</time>
      </trkpt>
      <trkpt lat="42.90569" lon="1.02825">
        <ele>564</ele>
        <time>2021-08-20T19:07:18Z</time>
      </trkpt>
      <trkpt lat="42.90541" lon="1.02832">
        <ele>561</ele>
        <time>2021-08-20T19:07:23Z</time>
      </trkpt>
      <trkpt lat="42.90513" lon="1.02849">
        <ele>561</ele>
        <time>2021-08-20T19:07:28Z</time>
      </trkpt>
      <trkpt lat="42.90488" lon="1.02869">
        <ele>562</ele>
        <time>2021-08-20T19:07:34Z</time>
      </trkpt>
      <trkpt lat="42.90451" lon="1.02909">
        <ele>563</ele>
        <time>2021-08-20T19:07:42Z</time>
      </trkpt>
      <trkpt lat="42.90416" lon="1.02938">
        <ele>563</ele>
        <time>2021-08-20T19:07:49Z</time>
      </trkpt>
      <trkpt lat="42.90393" lon="1.02944">
        <ele>563</ele>
        <time>2021-08-20T19:07:53Z</time>
      </trkpt>
      <trkpt lat="42.90346" lon="1.02944">
        <ele>561</ele>
        <time>2021-08-20T19:08:02Z</time>
      </trkpt>
      <trkpt lat="42.90311" lon="1.0294">
        <ele>560</ele>
        <time>2021-08-20T19:08:08Z</time>
      </trkpt>
      <trkpt lat="42.90302" lon="1.02957">
        <ele>564</ele>
        <time>2021-08-20T19:08:11Z</time>
      </trkpt>
      <trkpt lat="42.90279" lon="1.02979">
        <ele>568</ele>
        <time>2021-08-20T19:08:16Z</time>
      </trkpt>
      <trkpt lat="42.9021" lon="1.03001">
        <ele>572</ele>
        <time>2021-08-20T19:08:28Z</time>
      </trkpt>
      <trkpt lat="42.90189" lon="1.03015">
        <ele>573</ele>
        <time>2021-08-20T19:08:32Z</time>
      </trkpt>
      <trkpt lat="42.90162" lon="1.03053">
        <ele>576</ele>
        <time>2021-08-20T19:08:39Z</time>
      </trkpt>
      <trkpt lat="42.90151" lon="1.03082">
        <ele>580</ele>
        <time>2021-08-20T19:08:44Z</time>
      </trkpt>
      <trkpt lat="42.90149" lon="1.03215">
        <ele>600</ele>
        <time>2021-08-20T19:09:01Z</time>
      </trkpt>
      <trkpt lat="42.90145" lon="1.03245">
        <ele>604</ele>
        <time>2021-08-20T19:09:05Z</time>
      </trkpt>
      <trkpt lat="42.90138" lon="1.03252">
        <ele>607</ele>
        <time>2021-08-20T19:09:06Z</time>
      </trkpt>
      <trkpt lat="42.9013" lon="1.03255">
        <ele>609</ele>
        <time>2021-08-20T19:09:08Z</time>
      </trkpt>
      <trkpt lat="42.90126" lon="1.03253">
        <ele>609</ele>
        <time>2021-08-20T19:09:09Z</time>
      </trkpt>
      <trkpt lat="42.9011" lon="1.03217">
        <ele>606</ele>
        <time>2021-08-20T19:09:14Z</time>
      </trkpt>
      <trkpt lat="42.90099" lon="1.03175">
        <ele>600</ele>
        <time>2021-08-20T19:09:20Z</time>
      </trkpt>
      <trkpt lat="42.9009" lon="1.03153">
        <ele>597</ele>
        <time>2021-08-20T19:09:23Z</time>
      </trkpt>
      <trkpt lat="42.90051" lon="1.03138">
        <ele>600</ele>
        <time>2021-08-20T19:09:31Z</time>
      </trkpt>
      <trkpt lat="42.9002" lon="1.0312">
        <ele>602</ele>
        <time>2021-08-20T19:09:37Z</time>
      </trkpt>
      <trkpt lat="42.89998" lon="1.03104">
        <ele>603</ele>
        <time>2021-08-20T19:09:41Z</time>
      </trkpt>
      <trkpt lat="42.89957" lon="1.03066">
        <ele>596</ele>
        <time>2021-08-20T19:09:50Z</time>
      </trkpt>
      <trkpt lat="42.8994" lon="1.03062">
        <ele>595</ele>
        <time>2021-08-20T19:09:53Z</time>
      </trkpt>
      <trkpt lat="42.89933" lon="1.03068">
        <ele>596</ele>
        <time>2021-08-20T19:09:54Z</time>
      </trkpt>
      <trkpt lat="42.89927" lon="1.03083">
        <ele>599</ele>
        <time>2021-08-20T19:09:57Z</time>
      </trkpt>
      <trkpt lat="42.89923" lon="1.03159">
        <ele>608</ele>
        <time>2021-08-20T19:10:06Z</time>
      </trkpt>
      <trkpt lat="42.89896" lon="1.03268">
        <ele>616</ele>
        <time>2021-08-20T19:10:21Z</time>
      </trkpt>
      <trkpt lat="42.89871" lon="1.03386">
        <ele>626</ele>
        <time>2021-08-20T19:10:37Z</time>
      </trkpt>
      <trkpt lat="42.89858" lon="1.03433">
        <ele>628</ele>
        <time>2021-08-20T19:10:44Z</time>
      </trkpt>
      <trkpt lat="42.89855" lon="1.03469">
        <ele>629</ele>
        <time>2021-08-20T19:10:49Z</time>
      </trkpt>
      <trkpt lat="42.89869" lon="1.0353">
        <ele>638</ele>
        <time>2021-08-20T19:10:57Z</time>
      </trkpt>
      <trkpt lat="42.89866" lon="1.03554">
        <ele>639</ele>
        <time>2021-08-20T19:11:00Z</time>
      </trkpt>
      <trkpt lat="42.89841" lon="1.03588">
        <ele>636</ele>
        <time>2021-08-20T19:11:07Z</time>
      </trkpt>
      <trkpt lat="42.89815" lon="1.03613">
        <ele>635</ele>
        <time>2021-08-20T19:11:12Z</time>
      </trkpt>
      <trkpt lat="42.89787" lon="1.03652">
        <ele>638</ele>
        <time>2021-08-20T19:11:19Z</time>
      </trkpt>
      <trkpt lat="42.89777" lon="1.03676">
        <ele>640</ele>
        <time>2021-08-20T19:11:23Z</time>
      </trkpt>
      <trkpt lat="42.89773" lon="1.03704">
        <ele>643</ele>
        <time>2021-08-20T19:11:27Z</time>
      </trkpt>
      <trkpt lat="42.8977" lon="1.0376">
        <ele>650</ele>
        <time>2021-08-20T19:11:34Z</time>
      </trkpt>
      <trkpt lat="42.8976" lon="1.03775">
        <ele>651</ele>
        <time>2021-08-20T19:11:37Z</time>
      </trkpt>
      <trkpt lat="42.89718" lon="1.03802">
        <ele>650</ele>
        <time>2021-08-20T19:11:45Z</time>
      </trkpt>
      <trkpt lat="42.89665" lon="1.0385">
        <ele>652</ele>
        <time>2021-08-20T19:11:56Z</time>
      </trkpt>
      <trkpt lat="42.89654" lon="1.03863">
        <ele>651</ele>
        <time>2021-08-20T19:11:59Z</time>
      </trkpt>
      <trkpt lat="42.89643" lon="1.03893">
        <ele>652</ele>
        <time>2021-08-20T19:12:03Z</time>
      </trkpt>
      <trkpt lat="42.8964" lon="1.03914">
        <ele>653</ele>
        <time>2021-08-20T19:12:06Z</time>
      </trkpt>
      <trkpt lat="42.89646" lon="1.0396">
        <ele>658</ele>
        <time>2021-08-20T19:12:12Z</time>
      </trkpt>
      <trkpt lat="42.89652" lon="1.03982">
        <ele>660</ele>
        <time>2021-08-20T19:12:15Z</time>
      </trkpt>
      <trkpt lat="42.89655" lon="1.04007">
        <ele>662</ele>
        <time>2021-08-20T19:12:18Z</time>
      </trkpt>
      <trkpt lat="42.8965" lon="1.04023">
        <ele>663</ele>
        <time>2021-08-20T19:12:21Z</time>
      </trkpt>
      <trkpt lat="42.89639" lon="1.04042">
        <ele>663</ele>
        <time>2021-08-20T19:12:24Z</time>
      </trkpt>
      <trkpt lat="42.89591" lon="1.04066">
        <ele>658</ele>
        <time>2021-08-20T19:12:33Z</time>
      </trkpt>
      <trkpt lat="42.89577" lon="1.04076">
        <ele>658</ele>
        <time>2021-08-20T19:12:36Z</time>
      </trkpt>
      <trkpt lat="42.89565" lon="1.04093">
        <ele>657</ele>
        <time>2021-08-20T19:12:39Z</time>
      </trkpt>
      <trkpt lat="42.8956" lon="1.04104">
        <ele>657</ele>
        <time>2021-08-20T19:12:40Z</time>
      </trkpt>
      <trkpt lat="42.89559" lon="1.04125">
        <ele>658</ele>
        <time>2021-08-20T19:12:43Z</time>
      </trkpt>
      <trkpt lat="42.89564" lon="1.04151">
        <ele>661</ele>
        <time>2021-08-20T19:12:47Z</time>
      </trkpt>
      <trkpt lat="42.89605" lon="1.04251">
        <ele>672</ele>
        <time>2021-08-20T19:13:02Z</time>
      </trkpt>
      <trkpt lat="42.89622" lon="1.04285">
        <ele>679</ele>
        <time>2021-08-20T19:13:07Z</time>
      </trkpt>
      <trkpt lat="42.8964" lon="1.04357">
        <ele>686</ele>
        <time>2021-08-20T19:13:17Z</time>
      </trkpt>
      <trkpt lat="42.89649" lon="1.04378">
        <ele>688</ele>
        <time>2021-08-20T19:13:20Z</time>
      </trkpt>
      <trkpt lat="42.89663" lon="1.04401">
        <ele>690</ele>
        <time>2021-08-20T19:13:24Z</time>
      </trkpt>
      <trkpt lat="42.89668" lon="1.04415">
        <ele>690</ele>
        <time>2021-08-20T19:13:26Z</time>
      </trkpt>
      <trkpt lat="42.8967" lon="1.04429">
        <ele>693</ele>
        <time>2021-08-20T19:13:28Z</time>
      </trkpt>
      <trkpt lat="42.89665" lon="1.04443">
        <ele>694</ele>
        <time>2021-08-20T19:13:30Z</time>
      </trkpt>
      <trkpt lat="42.89659" lon="1.04455">
        <ele>697</ele>
        <time>2021-08-20T19:13:32Z</time>
      </trkpt>
      <trkpt lat="42.89651" lon="1.04464">
        <ele>698</ele>
        <time>2021-08-20T19:13:34Z</time>
      </trkpt>
      <trkpt lat="42.89642" lon="1.0447">
        <ele>699</ele>
        <time>2021-08-20T19:13:35Z</time>
      </trkpt>
      <trkpt lat="42.89627" lon="1.04475">
        <ele>700</ele>
        <time>2021-08-20T19:13:38Z</time>
      </trkpt>
      <trkpt lat="42.89616" lon="1.04465">
        <ele>699</ele>
        <time>2021-08-20T19:13:41Z</time>
      </trkpt>
      <trkpt lat="42.89583" lon="1.04408">
        <ele>690</ele>
        <time>2021-08-20T19:13:50Z</time>
      </trkpt>
      <trkpt lat="42.89575" lon="1.04399">
        <ele>688</ele>
        <time>2021-08-20T19:13:52Z</time>
      </trkpt>
      <trkpt lat="42.89564" lon="1.04396">
        <ele>686</ele>
        <time>2021-08-20T19:13:54Z</time>
      </trkpt>
      <trkpt lat="42.89543" lon="1.0441">
        <ele>687</ele>
        <time>2021-08-20T19:13:58Z</time>
      </trkpt>
      <trkpt lat="42.89526" lon="1.04436">
        <ele>689</ele>
        <time>2021-08-20T19:14:03Z</time>
      </trkpt>
      <trkpt lat="42.8949" lon="1.04526">
        <ele>698</ele>
        <time>2021-08-20T19:14:16Z</time>
      </trkpt>
      <trkpt lat="42.89458" lon="1.04644">
        <ele>704</ele>
        <time>2021-08-20T19:14:32Z</time>
      </trkpt>
      <trkpt lat="42.89458" lon="1.0469">
        <ele>708</ele>
        <time>2021-08-20T19:14:38Z</time>
      </trkpt>
      <trkpt lat="42.8946" lon="1.04711">
        <ele>710</ele>
        <time>2021-08-20T19:14:41Z</time>
      </trkpt>
      <trkpt lat="42.89468" lon="1.04731">
        <ele>713</ele>
        <time>2021-08-20T19:14:44Z</time>
      </trkpt>
      <trkpt lat="42.8948" lon="1.04775">
        <ele>719</ele>
        <time>2021-08-20T19:14:50Z</time>
      </trkpt>
      <trkpt lat="42.89482" lon="1.04789">
        <ele>721</ele>
        <time>2021-08-20T19:14:52Z</time>
      </trkpt>
      <trkpt lat="42.89475" lon="1.04802">
        <ele>721</ele>
        <time>2021-08-20T19:14:54Z</time>
      </trkpt>
      <trkpt lat="42.89455" lon="1.04806">
        <ele>719</ele>
        <time>2021-08-20T19:14:58Z</time>
      </trkpt>
      <trkpt lat="42.89418" lon="1.04817">
        <ele>717</ele>
        <time>2021-08-20T19:15:04Z</time>
      </trkpt>
      <trkpt lat="42.89388" lon="1.04831">
        <ele>713</ele>
        <time>2021-08-20T19:15:10Z</time>
      </trkpt>
      <trkpt lat="42.8938" lon="1.04846">
        <ele>712</ele>
        <time>2021-08-20T19:15:13Z</time>
      </trkpt>
      <trkpt lat="42.89379" lon="1.04867">
        <ele>712</ele>
        <time>2021-08-20T19:15:15Z</time>
      </trkpt>
      <trkpt lat="42.89409" lon="1.04935">
        <ele>720</ele>
        <time>2021-08-20T19:15:26Z</time>
      </trkpt>
      <trkpt lat="42.89449" lon="1.04979">
        <ele>728</ele>
        <time>2021-08-20T19:15:35Z</time>
      </trkpt>
      <trkpt lat="42.89455" lon="1.05002">
        <ele>730</ele>
        <time>2021-08-20T19:15:38Z</time>
      </trkpt>
      <trkpt lat="42.89466" lon="1.05082">
        <ele>742</ele>
        <time>2021-08-20T19:15:49Z</time>
      </trkpt>
      <trkpt lat="42.89465" lon="1.05091">
        <ele>744</ele>
        <time>2021-08-20T19:15:50Z</time>
      </trkpt>
      <trkpt lat="42.89463" lon="1.05097">
        <ele>745</ele>
        <time>2021-08-20T19:15:51Z</time>
      </trkpt>
      <trkpt lat="42.89456" lon="1.05104">
        <ele>745</ele>
        <time>2021-08-20T19:15:52Z</time>
      </trkpt>
      <trkpt lat="42.89446" lon="1.05104">
        <ele>744</ele>
        <time>2021-08-20T19:15:54Z</time>
      </trkpt>
      <trkpt lat="42.89402" lon="1.0508">
        <ele>733</ele>
        <time>2021-08-20T19:16:02Z</time>
      </trkpt>
      <trkpt lat="42.89374" lon="1.05072">
        <ele>732</ele>
        <time>2021-08-20T19:16:07Z</time>
      </trkpt>
      <trkpt lat="42.89353" lon="1.0507">
        <ele>732</ele>
        <time>2021-08-20T19:16:11Z</time>
      </trkpt>
      <trkpt lat="42.89333" lon="1.0507">
        <ele>732</ele>
        <time>2021-08-20T19:16:15Z</time>
      </trkpt>
      <trkpt lat="42.89312" lon="1.05077">
        <ele>732</ele>
        <time>2021-08-20T19:16:19Z</time>
      </trkpt>
      <trkpt lat="42.89291" lon="1.05087">
        <ele>733</ele>
        <time>2021-08-20T19:16:23Z</time>
      </trkpt>
      <trkpt lat="42.89272" lon="1.05103">
        <ele>733</ele>
        <time>2021-08-20T19:16:27Z</time>
      </trkpt>
      <trkpt lat="42.89263" lon="1.05114">
        <ele>734</ele>
        <time>2021-08-20T19:16:29Z</time>
      </trkpt>
      <trkpt lat="42.89246" lon="1.05145">
        <ele>735</ele>
        <time>2021-08-20T19:16:34Z</time>
      </trkpt>
      <trkpt lat="42.8924" lon="1.05165">
        <ele>735</ele>
        <time>2021-08-20T19:16:37Z</time>
      </trkpt>
      <trkpt lat="42.89236" lon="1.05188">
        <ele>737</ele>
        <time>2021-08-20T19:16:40Z</time>
      </trkpt>
      <trkpt lat="42.89232" lon="1.05252">
        <ele>743</ele>
        <time>2021-08-20T19:16:48Z</time>
      </trkpt>
      <trkpt lat="42.89224" lon="1.05275">
        <ele>746</ele>
        <time>2021-08-20T19:16:51Z</time>
      </trkpt>
      <trkpt lat="42.89217" lon="1.05282">
        <ele>746</ele>
        <time>2021-08-20T19:16:53Z</time>
      </trkpt>
      <trkpt lat="42.89197" lon="1.05295">
        <ele>744</ele>
        <time>2021-08-20T19:16:57Z</time>
      </trkpt>
      <trkpt lat="42.89171" lon="1.05327">
        <ele>746</ele>
        <time>2021-08-20T19:17:03Z</time>
      </trkpt>
      <trkpt lat="42.89158" lon="1.05336">
        <ele>746</ele>
        <time>2021-08-20T19:17:06Z</time>
      </trkpt>
      <trkpt lat="42.89126" lon="1.05348">
        <ele>742</ele>
        <time>2021-08-20T19:17:12Z</time>
      </trkpt>
      <trkpt lat="42.89109" lon="1.05358">
        <ele>740</ele>
        <time>2021-08-20T19:17:15Z</time>
      </trkpt>
      <trkpt lat="42.89094" lon="1.05373">
        <ele>739</ele>
        <time>2021-08-20T19:17:18Z</time>
      </trkpt>
      <trkpt lat="42.89082" lon="1.05392">
        <ele>739</ele>
        <time>2021-08-20T19:17:21Z</time>
      </trkpt>
      <trkpt lat="42.89073" lon="1.05418">
        <ele>739</ele>
        <time>2021-08-20T19:17:25Z</time>
      </trkpt>
      <trkpt lat="42.89071" lon="1.05434">
        <ele>739</ele>
        <time>2021-08-20T19:17:27Z</time>
      </trkpt>
      <trkpt lat="42.89071" lon="1.0545">
        <ele>739</ele>
        <time>2021-08-20T19:17:29Z</time>
      </trkpt>
      <trkpt lat="42.89077" lon="1.05563">
        <ele>746</ele>
        <time>2021-08-20T19:17:44Z</time>
      </trkpt>
      <trkpt lat="42.89079" lon="1.05575">
        <ele>746</ele>
        <time>2021-08-20T19:17:46Z</time>
      </trkpt>
      <trkpt lat="42.8909" lon="1.05596">
        <ele>752</ele>
        <time>2021-08-20T19:17:49Z</time>
      </trkpt>
      <trkpt lat="42.89094" lon="1.05612">
        <ele>756</ele>
        <time>2021-08-20T19:17:51Z</time>
      </trkpt>
      <trkpt lat="42.89095" lon="1.05624">
        <ele>759</ele>
        <time>2021-08-20T19:17:53Z</time>
      </trkpt>
      <trkpt lat="42.89092" lon="1.05634">
        <ele>760</ele>
        <time>2021-08-20T19:17:54Z</time>
      </trkpt>
      <trkpt lat="42.89085" lon="1.05639">
        <ele>760</ele>
        <time>2021-08-20T19:17:56Z</time>
      </trkpt>
      <trkpt lat="42.89077" lon="1.0564">
        <ele>760</ele>
        <time>2021-08-20T19:17:57Z</time>
      </trkpt>
      <trkpt lat="42.89056" lon="1.05635">
        <ele>758</ele>
        <time>2021-08-20T19:18:01Z</time>
      </trkpt>
      <trkpt lat="42.89022" lon="1.05617">
        <ele>753</ele>
        <time>2021-08-20T19:18:07Z</time>
      </trkpt>
      <trkpt lat="42.88997" lon="1.05609">
        <ele>751</ele>
        <time>2021-08-20T19:18:12Z</time>
      </trkpt>
      <trkpt lat="42.88987" lon="1.05609">
        <ele>750</ele>
        <time>2021-08-20T19:18:14Z</time>
      </trkpt>
      <trkpt lat="42.88967" lon="1.05624">
        <ele>750</ele>
        <time>2021-08-20T19:18:18Z</time>
      </trkpt>
      <trkpt lat="42.88959" lon="1.05635">
        <ele>751</ele>
        <time>2021-08-20T19:18:20Z</time>
      </trkpt>
      <trkpt lat="42.88944" lon="1.05667">
        <ele>754</ele>
        <time>2021-08-20T19:18:25Z</time>
      </trkpt>
      <trkpt lat="42.88935" lon="1.05691">
        <ele>755</ele>
        <time>2021-08-20T19:18:28Z</time>
      </trkpt>
      <trkpt lat="42.88924" lon="1.0574">
        <ele>756</ele>
        <time>2021-08-20T19:18:35Z</time>
      </trkpt>
      <trkpt lat="42.88921" lon="1.05755">
        <ele>757</ele>
        <time>2021-08-20T19:18:37Z</time>
      </trkpt>
      <trkpt lat="42.88916" lon="1.05818">
        <ele>758</ele>
        <time>2021-08-20T19:18:45Z</time>
      </trkpt>
      <trkpt lat="42.88915" lon="1.05882">
        <ele>768</ele>
        <time>2021-08-20T19:18:54Z</time>
      </trkpt>
      <trkpt lat="42.88909" lon="1.05909">
        <ele>772</ele>
        <time>2021-08-20T19:18:57Z</time>
      </trkpt>
      <trkpt lat="42.88891" lon="1.05918">
        <ele>774</ele>
        <time>2021-08-20T19:19:01Z</time>
      </trkpt>
      <trkpt lat="42.88871" lon="1.05914">
        <ele>772</ele>
        <time>2021-08-20T19:19:04Z</time>
      </trkpt>
      <trkpt lat="42.88826" lon="1.05894">
        <ele>765</ele>
        <time>2021-08-20T19:19:13Z</time>
      </trkpt>
      <trkpt lat="42.88813" lon="1.0589">
        <ele>763</ele>
        <time>2021-08-20T19:19:15Z</time>
      </trkpt>
      <trkpt lat="42.88797" lon="1.05888">
        <ele>761</ele>
        <time>2021-08-20T19:19:18Z</time>
      </trkpt>
      <trkpt lat="42.88779" lon="1.05892">
        <ele>760</ele>
        <time>2021-08-20T19:19:21Z</time>
      </trkpt>
      <trkpt lat="42.88765" lon="1.05898">
        <ele>760</ele>
        <time>2021-08-20T19:19:24Z</time>
      </trkpt>
      <trkpt lat="42.88749" lon="1.05911">
        <ele>761</ele>
        <time>2021-08-20T19:19:27Z</time>
      </trkpt>
      <trkpt lat="42.88739" lon="1.05925">
        <ele>761</ele>
        <time>2021-08-20T19:19:30Z</time>
      </trkpt>
      <trkpt lat="42.88728" lon="1.05946">
        <ele>761</ele>
        <time>2021-08-20T19:19:33Z</time>
      </trkpt>
      <trkpt lat="42.8872" lon="1.05981">
        <ele>764</ele>
        <time>2021-08-20T19:19:38Z</time>
      </trkpt>
      <trkpt lat="42.88723" lon="1.06051">
        <ele>775</ele>
        <time>2021-08-20T19:19:47Z</time>
      </trkpt>
      <trkpt lat="42.8872" lon="1.06078">
        <ele>778</ele>
        <time>2021-08-20T19:19:50Z</time>
      </trkpt>
      <trkpt lat="42.88681" lon="1.06115">
        <ele>772</ele>
        <time>2021-08-20T19:19:59Z</time>
      </trkpt>
      <trkpt lat="42.88662" lon="1.06129">
        <ele>769</ele>
        <time>2021-08-20T19:20:03Z</time>
      </trkpt>
      <trkpt lat="42.88651" lon="1.06145">
        <ele>768</ele>
        <time>2021-08-20T19:20:06Z</time>
      </trkpt>
      <trkpt lat="42.88645" lon="1.06161">
        <ele>768</ele>
        <time>2021-08-20T19:20:08Z</time>
      </trkpt>
      <trkpt lat="42.88641" lon="1.06195">
        <ele>770</ele>
        <time>2021-08-20T19:20:12Z</time>
      </trkpt>
      <trkpt lat="42.88646" lon="1.06255">
        <ele>776</ele>
        <time>2021-08-20T19:20:20Z</time>
      </trkpt>
      <trkpt lat="42.8867" lon="1.0639">
        <ele>795</ele>
        <time>2021-08-20T19:20:38Z</time>
      </trkpt>
      <trkpt lat="42.88671" lon="1.06412">
        <ele>797</ele>
        <time>2021-08-20T19:20:41Z</time>
      </trkpt>
      <trkpt lat="42.88668" lon="1.06425">
        <ele>797</ele>
        <time>2021-08-20T19:20:43Z</time>
      </trkpt>
      <trkpt lat="42.88662" lon="1.06433">
        <ele>798</ele>
        <time>2021-08-20T19:20:45Z</time>
      </trkpt>
      <trkpt lat="42.88649" lon="1.06441">
        <ele>800</ele>
        <time>2021-08-20T19:20:47Z</time>
      </trkpt>
      <trkpt lat="42.88641" lon="1.06441">
        <ele>800</ele>
        <time>2021-08-20T19:20:49Z</time>
      </trkpt>
      <trkpt lat="42.88635" lon="1.06435">
        <ele>799</ele>
        <time>2021-08-20T19:20:50Z</time>
      </trkpt>
      <trkpt lat="42.88592" lon="1.06381">
        <ele>783</ele>
        <time>2021-08-20T19:21:00Z</time>
      </trkpt>
      <trkpt lat="42.88578" lon="1.06373">
        <ele>778</ele>
        <time>2021-08-20T19:21:03Z</time>
      </trkpt>
      <trkpt lat="42.88556" lon="1.06371">
        <ele>773</ele>
        <time>2021-08-20T19:21:07Z</time>
      </trkpt>
      <trkpt lat="42.88547" lon="1.06375">
        <ele>772</ele>
        <time>2021-08-20T19:21:09Z</time>
      </trkpt>
      <trkpt lat="42.88531" lon="1.0639">
        <ele>773</ele>
        <time>2021-08-20T19:21:12Z</time>
      </trkpt>
      <trkpt lat="42.88413" lon="1.06588">
        <ele>784</ele>
        <time>2021-08-20T19:21:45Z</time>
      </trkpt>
      <trkpt lat="42.88356" lon="1.06712">
        <ele>789</ele>
        <time>2021-08-20T19:22:04Z</time>
      </trkpt>
      <trkpt lat="42.88339" lon="1.06754">
        <ele>791</ele>
        <time>2021-08-20T19:22:11Z</time>
      </trkpt>
      <trkpt lat="42.88326" lon="1.0679">
        <ele>796</ele>
        <time>2021-08-20T19:22:16Z</time>
      </trkpt>
      <trkpt lat="42.88317" lon="1.06802">
        <ele>797</ele>
        <time>2021-08-20T19:22:18Z</time>
      </trkpt>
      <trkpt lat="42.88306" lon="1.0681">
        <ele>797</ele>
        <time>2021-08-20T19:22:20Z</time>
      </trkpt>
      <trkpt lat="42.88244" lon="1.06839">
        <ele>791</ele>
        <time>2021-08-20T19:22:32Z</time>
      </trkpt>
      <trkpt lat="42.88168" lon="1.06887">
        <ele>794</ele>
        <time>2021-08-20T19:22:47Z</time>
      </trkpt>
      <trkpt lat="42.88156" lon="1.06897">
        <ele>795</ele>
        <time>2021-08-20T19:22:49Z</time>
      </trkpt>
      <trkpt lat="42.88147" lon="1.06909">
        <ele>796</ele>
        <time>2021-08-20T19:22:52Z</time>
      </trkpt>
      <trkpt lat="42.88144" lon="1.0693">
        <ele>798</ele>
        <time>2021-08-20T19:22:54Z</time>
      </trkpt>
      <trkpt lat="42.88145" lon="1.06939">
        <ele>799</ele>
        <time>2021-08-20T19:22:56Z</time>
      </trkpt>
      <trkpt lat="42.88147" lon="1.06949">
        <ele>800</ele>
        <time>2021-08-20T19:22:57Z</time>
      </trkpt>
      <trkpt lat="42.88157" lon="1.06971">
        <ele>804</ele>
        <time>2021-08-20T19:23:00Z</time>
      </trkpt>
      <trkpt lat="42.88181" lon="1.06986">
        <ele>810</ele>
        <time>2021-08-20T19:23:05Z</time>
      </trkpt>
      <trkpt lat="42.88192" lon="1.06991">
        <ele>814</ele>
        <time>2021-08-20T19:23:07Z</time>
      </trkpt>
      <trkpt lat="42.88198" lon="1.07">
        <ele>816</ele>
        <time>2021-08-20T19:23:09Z</time>
      </trkpt>
      <trkpt lat="42.88201" lon="1.07011">
        <ele>818</ele>
        <time>2021-08-20T19:23:10Z</time>
      </trkpt>
      <trkpt lat="42.88199" lon="1.07024">
        <ele>819</ele>
        <time>2021-08-20T19:23:12Z</time>
      </trkpt>
      <trkpt lat="42.88193" lon="1.07033">
        <ele>819</ele>
        <time>2021-08-20T19:23:14Z</time>
      </trkpt>
      <trkpt lat="42.88187" lon="1.0704">
        <ele>819</ele>
        <time>2021-08-20T19:23:15Z</time>
      </trkpt>
      <trkpt lat="42.88153" lon="1.07065">
        <ele>817</ele>
        <time>2021-08-20T19:23:22Z</time>
      </trkpt>
      <trkpt lat="42.88139" lon="1.07084">
        <ele>819</ele>
        <time>2021-08-20T19:23:25Z</time>
      </trkpt>
      <trkpt lat="42.88132" lon="1.07105">
        <ele>823</ele>
        <time>2021-08-20T19:23:28Z</time>
      </trkpt>
      <trkpt lat="42.88125" lon="1.07114">
        <ele>825</ele>
        <time>2021-08-20T19:23:30Z</time>
      </trkpt>
      <trkpt lat="42.88117" lon="1.0712">
        <ele>825</ele>
        <time>2021-08-20T19:23:32Z</time>
      </trkpt>
      <trkpt lat="42.881" lon="1.07122">
        <ele>824</ele>
        <time>2021-08-20T19:23:35Z</time>
      </trkpt>
      <trkpt lat="42.88083" lon="1.07114">
        <ele>820</ele>
        <time>2021-08-20T19:23:38Z</time>
      </trkpt>
      <trkpt lat="42.88071" lon="1.07114">
        <ele>821</ele>
        <time>2021-08-20T19:23:40Z</time>
      </trkpt>
      <trkpt lat="42.88039" lon="1.07127">
        <ele>827</ele>
        <time>2021-08-20T19:23:46Z</time>
      </trkpt>
      <trkpt lat="42.88028" lon="1.07127">
        <ele>828</ele>
        <time>2021-08-20T19:23:48Z</time>
      </trkpt>
      <trkpt lat="42.88018" lon="1.0712">
        <ele>828</ele>
        <time>2021-08-20T19:23:50Z</time>
      </trkpt>
      <trkpt lat="42.87997" lon="1.0709">
        <ele>821</ele>
        <time>2021-08-20T19:23:55Z</time>
      </trkpt>
      <trkpt lat="42.87983" lon="1.07086">
        <ele>816</ele>
        <time>2021-08-20T19:23:58Z</time>
      </trkpt>
      <trkpt lat="42.8797" lon="1.07091">
        <ele>815</ele>
        <time>2021-08-20T19:24:00Z</time>
      </trkpt>
      <trkpt lat="42.87938" lon="1.07125">
        <ele>820</ele>
        <time>2021-08-20T19:24:08Z</time>
      </trkpt>
      <trkpt lat="42.8792" lon="1.07154">
        <ele>828</ele>
        <time>2021-08-20T19:24:12Z</time>
      </trkpt>
      <trkpt lat="42.87913" lon="1.07176">
        <ele>835</ele>
        <time>2021-08-20T19:24:16Z</time>
      </trkpt>
      <trkpt lat="42.879" lon="1.07198">
        <ele>837</ele>
        <time>2021-08-20T19:24:19Z</time>
      </trkpt>
      <trkpt lat="42.87851" lon="1.0727">
        <ele>840</ele>
        <time>2021-08-20T19:24:32Z</time>
      </trkpt>
      <trkpt lat="42.87816" lon="1.07379">
        <ele>850</ele>
        <time>2021-08-20T19:24:48Z</time>
      </trkpt>
      <trkpt lat="42.87796" lon="1.07457">
        <ele>856</ele>
        <time>2021-08-20T19:24:58Z</time>
      </trkpt>
      <trkpt lat="42.87781" lon="1.07535">
        <ele>861</ele>
        <time>2021-08-20T19:25:09Z</time>
      </trkpt>
      <trkpt lat="42.87781" lon="1.07554">
        <ele>864</ele>
        <time>2021-08-20T19:25:11Z</time>
      </trkpt>
      <trkpt lat="42.87785" lon="1.07565">
        <ele>866</ele>
        <time>2021-08-20T19:25:13Z</time>
      </trkpt>
      <trkpt lat="42.87797" lon="1.0758">
        <ele>871</ele>
        <time>2021-08-20T19:25:16Z</time>
      </trkpt>
      <trkpt lat="42.87799" lon="1.07586">
        <ele>872</ele>
        <time>2021-08-20T19:25:17Z</time>
      </trkpt>
      <trkpt lat="42.87799" lon="1.07596">
        <ele>874</ele>
        <time>2021-08-20T19:25:18Z</time>
      </trkpt>
      <trkpt lat="42.87796" lon="1.07606">
        <ele>876</ele>
        <time>2021-08-20T19:25:19Z</time>
      </trkpt>
      <trkpt lat="42.87792" lon="1.07613">
        <ele>877</ele>
        <time>2021-08-20T19:25:21Z</time>
      </trkpt>
      <trkpt lat="42.87785" lon="1.07617">
        <ele>877</ele>
        <time>2021-08-20T19:25:22Z</time>
      </trkpt>
      <trkpt lat="42.87777" lon="1.0762">
        <ele>878</ele>
        <time>2021-08-20T19:25:23Z</time>
      </trkpt>
      <trkpt lat="42.87766" lon="1.0762">
        <ele>877</ele>
        <time>2021-08-20T19:25:25Z</time>
      </trkpt>
      <trkpt lat="42.87753" lon="1.07617">
        <ele>875</ele>
        <time>2021-08-20T19:25:28Z</time>
      </trkpt>
      <trkpt lat="42.87702" lon="1.07594">
        <ele>864</ele>
        <time>2021-08-20T19:25:37Z</time>
      </trkpt>
      <trkpt lat="42.87691" lon="1.07592">
        <ele>863</ele>
        <time>2021-08-20T19:25:39Z</time>
      </trkpt>
      <trkpt lat="42.87681" lon="1.07593">
        <ele>864</ele>
        <time>2021-08-20T19:25:41Z</time>
      </trkpt>
      <trkpt lat="42.87671" lon="1.07597">
        <ele>866</ele>
        <time>2021-08-20T19:25:43Z</time>
      </trkpt>
      <trkpt lat="42.87629" lon="1.07625">
        <ele>871</ele>
        <time>2021-08-20T19:25:51Z</time>
      </trkpt>
      <trkpt lat="42.87568" lon="1.07672">
        <ele>873</ele>
        <time>2021-08-20T19:26:04Z</time>
      </trkpt>
      <trkpt lat="42.87556" lon="1.07686">
        <ele>873</ele>
        <time>2021-08-20T19:26:06Z</time>
      </trkpt>
      <trkpt lat="42.87549" lon="1.07698">
        <ele>874</ele>
        <time>2021-08-20T19:26:08Z</time>
      </trkpt>
      <trkpt lat="42.87542" lon="1.07717">
        <ele>877</ele>
        <time>2021-08-20T19:26:11Z</time>
      </trkpt>
      <trkpt lat="42.87537" lon="1.07736">
        <ele>881</ele>
        <time>2021-08-20T19:26:14Z</time>
      </trkpt>
      <trkpt lat="42.87523" lon="1.07767">
        <ele>887</ele>
        <time>2021-08-20T19:26:19Z</time>
      </trkpt>
      <trkpt lat="42.87513" lon="1.0778">
        <ele>888</ele>
        <time>2021-08-20T19:26:21Z</time>
      </trkpt>
      <trkpt lat="42.87466" lon="1.07815">
        <ele>884</ele>
        <time>2021-08-20T19:26:31Z</time>
      </trkpt>
      <trkpt lat="42.87452" lon="1.07834">
        <ele>886</ele>
        <time>2021-08-20T19:26:34Z</time>
      </trkpt>
      <trkpt lat="42.87422" lon="1.07862">
        <ele>886</ele>
        <time>2021-08-20T19:26:41Z</time>
      </trkpt>
      <trkpt lat="42.87408" lon="1.07879">
        <ele>887</ele>
        <time>2021-08-20T19:26:44Z</time>
      </trkpt>
      <trkpt lat="42.87399" lon="1.07896">
        <ele>889</ele>
        <time>2021-08-20T19:26:47Z</time>
      </trkpt>
      <trkpt lat="42.87389" lon="1.07922">
        <ele>894</ele>
        <time>2021-08-20T19:26:51Z</time>
      </trkpt>
      <trkpt lat="42.87348" lon="1.07992">
        <ele>896</ele>
        <time>2021-08-20T19:27:02Z</time>
      </trkpt>
      <trkpt lat="42.87317" lon="1.0805">
        <ele>902</ele>
        <time>2021-08-20T19:27:12Z</time>
      </trkpt>
      <trkpt lat="42.87306" lon="1.08082">
        <ele>909</ele>
        <time>2021-08-20T19:27:16Z</time>
      </trkpt>
      <trkpt lat="42.87278" lon="1.08131">
        <ele>914</ele>
        <time>2021-08-20T19:27:24Z</time>
      </trkpt>
      <trkpt lat="42.8723" lon="1.08198">
        <ele>914</ele>
        <time>2021-08-20T19:27:36Z</time>
      </trkpt>
      <trkpt lat="42.87215" lon="1.0823">
        <ele>918</ele>
        <time>2021-08-20T19:27:41Z</time>
      </trkpt>
      <trkpt lat="42.87205" lon="1.08258">
        <ele>921</ele>
        <time>2021-08-20T19:27:46Z</time>
      </trkpt>
      <trkpt lat="42.87188" lon="1.08288">
        <ele>921</ele>
        <time>2021-08-20T19:27:50Z</time>
      </trkpt>
      <trkpt lat="42.87134" lon="1.08374">
        <ele>926</ele>
        <time>2021-08-20T19:28:05Z</time>
      </trkpt>
      <trkpt lat="42.87106" lon="1.08426">
        <ele>929</ele>
        <time>2021-08-20T19:28:14Z</time>
      </trkpt>
      <trkpt lat="42.87088" lon="1.08461">
        <ele>929</ele>
        <time>2021-08-20T19:28:19Z</time>
      </trkpt>
      <trkpt lat="42.87072" lon="1.08503">
        <ele>933</ele>
        <time>2021-08-20T19:28:25Z</time>
      </trkpt>
      <trkpt lat="42.87066" lon="1.08521">
        <ele>935</ele>
        <time>2021-08-20T19:28:28Z</time>
      </trkpt>
      <trkpt lat="42.87065" lon="1.08541">
        <ele>939</ele>
        <time>2021-08-20T19:28:31Z</time>
      </trkpt>
      <trkpt lat="42.87068" lon="1.08567">
        <ele>946</ele>
        <time>2021-08-20T19:28:34Z</time>
      </trkpt>
      <trkpt lat="42.87065" lon="1.08575">
        <ele>946</ele>
        <time>2021-08-20T19:28:35Z</time>
      </trkpt>
      <trkpt lat="42.87055" lon="1.08586">
        <ele>945</ele>
        <time>2021-08-20T19:28:37Z</time>
      </trkpt>
      <trkpt lat="42.87033" lon="1.086">
        <ele>940</ele>
        <time>2021-08-20T19:28:42Z</time>
      </trkpt>
      <trkpt lat="42.87018" lon="1.08618">
        <ele>939</ele>
        <time>2021-08-20T19:28:45Z</time>
      </trkpt>
      <trkpt lat="42.86992" lon="1.08679">
        <ele>949</ele>
        <time>2021-08-20T19:28:55Z</time>
      </trkpt>
      <trkpt lat="42.86962" lon="1.0873">
        <ele>954</ele>
        <time>2021-08-20T19:29:03Z</time>
      </trkpt>
      <trkpt lat="42.86957" lon="1.08743">
        <ele>956</ele>
        <time>2021-08-20T19:29:05Z</time>
      </trkpt>
      <trkpt lat="42.86942" lon="1.08809">
        <ele>969</ele>
        <time>2021-08-20T19:29:14Z</time>
      </trkpt>
      <trkpt lat="42.86935" lon="1.08826">
        <ele>970</ele>
        <time>2021-08-20T19:29:17Z</time>
      </trkpt>
      <trkpt lat="42.86929" lon="1.08836">
        <ele>970</ele>
        <time>2021-08-20T19:29:18Z</time>
      </trkpt>
      <trkpt lat="42.86894" lon="1.08869">
        <ele>972</ele>
        <time>2021-08-20T19:29:26Z</time>
      </trkpt>
      <trkpt lat="42.86858" lon="1.08899">
        <ele>972</ele>
        <time>2021-08-20T19:29:33Z</time>
      </trkpt>
      <trkpt lat="42.86781" lon="1.08983">
        <ele>977</ele>
        <time>2021-08-20T19:29:51Z</time>
      </trkpt>
      <trkpt lat="42.86765" lon="1.09004">
        <ele>978</ele>
        <time>2021-08-20T19:29:55Z</time>
      </trkpt>
      <trkpt lat="42.86696" lon="1.09131">
        <ele>997</ele>
        <time>2021-08-20T19:30:15Z</time>
      </trkpt>
      <trkpt lat="42.8667" lon="1.09169">
        <ele>998</ele>
        <time>2021-08-20T19:30:22Z</time>
      </trkpt>
      <trkpt lat="42.86634" lon="1.09212">
        <ele>1007</ele>
        <time>2021-08-20T19:30:31Z</time>
      </trkpt>
      <trkpt lat="42.8658" lon="1.09263">
        <ele>1008</ele>
        <time>2021-08-20T19:30:42Z</time>
      </trkpt>
      <trkpt lat="42.86561" lon="1.09275">
        <ele>1013</ele>
        <time>2021-08-20T19:30:46Z</time>
      </trkpt>
      <trkpt lat="42.8655" lon="1.09277">
        <ele>1014</ele>
        <time>2021-08-20T19:30:48Z</time>
      </trkpt>
      <trkpt lat="42.86539" lon="1.09276">
        <ele>1015</ele>
        <time>2021-08-20T19:30:50Z</time>
      </trkpt>
      <trkpt lat="42.86531" lon="1.09269">
        <ele>1015</ele>
        <time>2021-08-20T19:30:52Z</time>
      </trkpt>
      <trkpt lat="42.86529" lon="1.09261">
        <ele>1014</ele>
        <time>2021-08-20T19:30:53Z</time>
      </trkpt>
      <trkpt lat="42.86527" lon="1.09241">
        <ele>1012</ele>
        <time>2021-08-20T19:30:55Z</time>
      </trkpt>
      <trkpt lat="42.86527" lon="1.09218">
        <ele>1010</ele>
        <time>2021-08-20T19:30:58Z</time>
      </trkpt>
      <trkpt lat="42.86523" lon="1.09197">
        <ele>1010</ele>
        <time>2021-08-20T19:31:01Z</time>
      </trkpt>
      <trkpt lat="42.86495" lon="1.0915">
        <ele>1015</ele>
        <time>2021-08-20T19:31:09Z</time>
      </trkpt>
      <trkpt lat="42.86485" lon="1.09123">
        <ele>1017</ele>
        <time>2021-08-20T19:31:13Z</time>
      </trkpt>
      <trkpt lat="42.86479" lon="1.0909">
        <ele>1019</ele>
        <time>2021-08-20T19:31:18Z</time>
      </trkpt>
      <trkpt lat="42.86475" lon="1.09043">
        <ele>1025</ele>
        <time>2021-08-20T19:31:24Z</time>
      </trkpt>
      <trkpt lat="42.86475" lon="1.09023">
        <ele>1027</ele>
        <time>2021-08-20T19:31:26Z</time>
      </trkpt>
      <trkpt lat="42.86504" lon="1.08883">
        <ele>1034</ele>
        <time>2021-08-20T19:31:45Z</time>
      </trkpt>
      <trkpt lat="42.8651" lon="1.08863">
        <ele>1036</ele>
        <time>2021-08-20T19:31:48Z</time>
      </trkpt>
      <trkpt lat="42.86517" lon="1.08845">
        <ele>1037</ele>
        <time>2021-08-20T19:31:51Z</time>
      </trkpt>
      <trkpt lat="42.8653" lon="1.08823">
        <ele>1036</ele>
        <time>2021-08-20T19:31:54Z</time>
      </trkpt>
      <trkpt lat="42.86577" lon="1.08756">
        <ele>1031</ele>
        <time>2021-08-20T19:32:07Z</time>
      </trkpt>
      <trkpt lat="42.86579" lon="1.08748">
        <ele>1031</ele>
        <time>2021-08-20T19:32:08Z</time>
      </trkpt>
      <trkpt lat="42.86579" lon="1.0874">
        <ele>1030</ele>
        <time>2021-08-20T19:32:09Z</time>
      </trkpt>
      <trkpt lat="42.86576" lon="1.08735">
        <ele>1030</ele>
        <time>2021-08-20T19:32:10Z</time>
      </trkpt>
      <trkpt lat="42.86562" lon="1.08727">
        <ele>1034</ele>
        <time>2021-08-20T19:32:12Z</time>
      </trkpt>
      <trkpt lat="42.86513" lon="1.08704">
        <ele>1050</ele>
        <time>2021-08-20T19:32:21Z</time>
      </trkpt>
      <trkpt lat="42.86479" lon="1.08685">
        <ele>1065</ele>
        <time>2021-08-20T19:32:28Z</time>
      </trkpt>
      <trkpt lat="42.86466" lon="1.08673">
        <ele>1070</ele>
        <time>2021-08-20T19:32:31Z</time>
      </trkpt>
      <trkpt lat="42.86443" lon="1.08612">
        <ele>1061</ele>
        <time>2021-08-20T19:32:40Z</time>
      </trkpt>
      <trkpt lat="42.86411" lon="1.08554">
        <ele>1058</ele>
        <time>2021-08-20T19:32:49Z</time>
      </trkpt>
      <trkpt lat="42.86405" lon="1.08545">
        <ele>1058</ele>
        <time>2021-08-20T19:32:51Z</time>
      </trkpt>
      <trkpt lat="42.86391" lon="1.08536">
        <ele>1059</ele>
        <time>2021-08-20T19:32:54Z</time>
      </trkpt>
      <trkpt lat="42.86386" lon="1.08535">
        <ele>1061</ele>
        <time>2021-08-20T19:32:54Z</time>
      </trkpt>
      <trkpt lat="42.86383" lon="1.08538">
        <ele>1062</ele>
        <time>2021-08-20T19:32:55Z</time>
      </trkpt>
      <trkpt lat="42.86382" lon="1.08542">
        <ele>1064</ele>
        <time>2021-08-20T19:32:56Z</time>
      </trkpt>
      <trkpt lat="42.86385" lon="1.08553">
        <ele>1066</ele>
        <time>2021-08-20T19:32:57Z</time>
      </trkpt>
      <trkpt lat="42.86415" lon="1.08589">
        <ele>1067</ele>
        <time>2021-08-20T19:33:04Z</time>
      </trkpt>
      <trkpt lat="42.8643" lon="1.08613">
        <ele>1069</ele>
        <time>2021-08-20T19:33:08Z</time>
      </trkpt>
      <trkpt lat="42.86438" lon="1.08636">
        <ele>1074</ele>
        <time>2021-08-20T19:33:12Z</time>
      </trkpt>
      <trkpt lat="42.86448" lon="1.08679">
        <ele>1082</ele>
        <time>2021-08-20T19:33:18Z</time>
      </trkpt>
      <trkpt lat="42.86456" lon="1.08704">
        <ele>1082</ele>
        <time>2021-08-20T19:33:21Z</time>
      </trkpt>
      <trkpt lat="42.86463" lon="1.08718">
        <ele>1080</ele>
        <time>2021-08-20T19:33:23Z</time>
      </trkpt>
      <trkpt lat="42.86477" lon="1.08736">
        <ele>1074</ele>
        <time>2021-08-20T19:33:27Z</time>
      </trkpt>
      <trkpt lat="42.86483" lon="1.08748">
        <ele>1073</ele>
        <time>2021-08-20T19:33:29Z</time>
      </trkpt>
      <trkpt lat="42.86485" lon="1.08754">
        <ele>1071</ele>
        <time>2021-08-20T19:33:30Z</time>
      </trkpt>
      <trkpt lat="42.86483" lon="1.08766">
        <ele>1070</ele>
        <time>2021-08-20T19:33:31Z</time>
      </trkpt>
      <trkpt lat="42.86466" lon="1.088">
        <ele>1075</ele>
        <time>2021-08-20T19:33:37Z</time>
      </trkpt>
      <trkpt lat="42.8637" lon="1.08962">
        <ele>1098</ele>
        <time>2021-08-20T19:34:04Z</time>
      </trkpt>
      <trkpt lat="42.86314" lon="1.09079">
        <ele>1102</ele>
        <time>2021-08-20T19:34:22Z</time>
      </trkpt>
      <trkpt lat="42.86284" lon="1.09164">
        <ele>1109</ele>
        <time>2021-08-20T19:34:34Z</time>
      </trkpt>
      <trkpt lat="42.86259" lon="1.09238">
        <ele>1111</ele>
        <time>2021-08-20T19:34:45Z</time>
      </trkpt>
      <trkpt lat="42.86226" lon="1.09319">
        <ele>1112</ele>
        <time>2021-08-20T19:34:57Z</time>
      </trkpt>
      <trkpt lat="42.86204" lon="1.09361">
        <ele>1113</ele>
        <time>2021-08-20T19:35:04Z</time>
      </trkpt>
      <trkpt lat="42.86185" lon="1.09389">
        <ele>1113</ele>
        <time>2021-08-20T19:35:09Z</time>
      </trkpt>
      <trkpt lat="42.86172" lon="1.09402">
        <ele>1113</ele>
        <time>2021-08-20T19:35:12Z</time>
      </trkpt>
      <trkpt lat="42.86158" lon="1.09413">
        <ele>1114</ele>
        <time>2021-08-20T19:35:14Z</time>
      </trkpt>
      <trkpt lat="42.8613" lon="1.0943">
        <ele>1118</ele>
        <time>2021-08-20T19:35:20Z</time>
      </trkpt>
      <trkpt lat="42.86094" lon="1.09439">
        <ele>1126</ele>
        <time>2021-08-20T19:35:26Z</time>
      </trkpt>
      <trkpt lat="42.86057" lon="1.09444">
        <ele>1128</ele>
        <time>2021-08-20T19:35:33Z</time>
      </trkpt>
      <trkpt lat="42.86003" lon="1.09435">
        <ele>1134</ele>
        <time>2021-08-20T19:35:43Z</time>
      </trkpt>
      <trkpt lat="42.8595" lon="1.09422">
        <ele>1129</ele>
        <time>2021-08-20T19:35:52Z</time>
      </trkpt>
      <trkpt lat="42.85915" lon="1.09409">
        <ele>1128</ele>
        <time>2021-08-20T19:35:59Z</time>
      </trkpt>
      <trkpt lat="42.85879" lon="1.09389">
        <ele>1133</ele>
        <time>2021-08-20T19:36:06Z</time>
      </trkpt>
      <trkpt lat="42.85772" lon="1.09313">
        <ele>1144</ele>
        <time>2021-08-20T19:36:27Z</time>
      </trkpt>
      <trkpt lat="42.85677" lon="1.09233">
        <ele>1158</ele>
        <time>2021-08-20T19:36:47Z</time>
      </trkpt>
      <trkpt lat="42.85639" lon="1.09212">
        <ele>1164</ele>
        <time>2021-08-20T19:36:54Z</time>
      </trkpt>
      <trkpt lat="42.85616" lon="1.09203">
        <ele>1167</ele>
        <time>2021-08-20T19:36:59Z</time>
      </trkpt>
      <trkpt lat="42.85605" lon="1.09201">
        <ele>1167</ele>
        <time>2021-08-20T19:37:00Z</time>
      </trkpt>
      <trkpt lat="42.85588" lon="1.09209">
        <ele>1165</ele>
        <time>2021-08-20T19:37:04Z</time>
      </trkpt>
      <trkpt lat="42.85544" lon="1.09259">
        <ele>1168</ele>
        <time>2021-08-20T19:37:14Z</time>
      </trkpt>
      <trkpt lat="42.85503" lon="1.09299">
        <ele>1172</ele>
        <time>2021-08-20T19:37:23Z</time>
      </trkpt>
      <trkpt lat="42.85478" lon="1.09321">
        <ele>1180</ele>
        <time>2021-08-20T19:37:28Z</time>
      </trkpt>
      <trkpt lat="42.85467" lon="1.09337">
        <ele>1183</ele>
        <time>2021-08-20T19:37:31Z</time>
      </trkpt>
      <trkpt lat="42.85459" lon="1.09354">
        <ele>1186</ele>
        <time>2021-08-20T19:37:34Z</time>
      </trkpt>
      <trkpt lat="42.85439" lon="1.09401">
        <ele>1194</ele>
        <time>2021-08-20T19:37:41Z</time>
      </trkpt>
      <trkpt lat="42.85437" lon="1.09425">
        <ele>1193</ele>
        <time>2021-08-20T19:37:44Z</time>
      </trkpt>
      <trkpt lat="42.8544" lon="1.09451">
        <ele>1188</ele>
        <time>2021-08-20T19:37:47Z</time>
      </trkpt>
      <trkpt lat="42.85448" lon="1.09572">
        <ele>1188</ele>
        <time>2021-08-20T19:38:03Z</time>
      </trkpt>
      <trkpt lat="42.85453" lon="1.09603">
        <ele>1197</ele>
        <time>2021-08-20T19:38:07Z</time>
      </trkpt>
      <trkpt lat="42.85463" lon="1.09627">
        <ele>1205</ele>
        <time>2021-08-20T19:38:11Z</time>
      </trkpt>
      <trkpt lat="42.85474" lon="1.09639">
        <ele>1208</ele>
        <time>2021-08-20T19:38:13Z</time>
      </trkpt>
      <trkpt lat="42.85502" lon="1.09658">
        <ele>1208</ele>
        <time>2021-08-20T19:38:19Z</time>
      </trkpt>
      <trkpt lat="42.85525" lon="1.09676">
        <ele>1209</ele>
        <time>2021-08-20T19:38:24Z</time>
      </trkpt>
      <trkpt lat="42.8554" lon="1.09695">
        <ele>1214</ele>
        <time>2021-08-20T19:38:27Z</time>
      </trkpt>
      <trkpt lat="42.85578" lon="1.09718">
        <ele>1213</ele>
        <time>2021-08-20T19:38:35Z</time>
      </trkpt>
      <trkpt lat="42.85702" lon="1.09808">
        <ele>1226</ele>
        <time>2021-08-20T19:39:00Z</time>
      </trkpt>
      <trkpt lat="42.85839" lon="1.09877">
        <ele>1227</ele>
        <time>2021-08-20T19:39:26Z</time>
      </trkpt>
      <trkpt lat="42.85868" lon="1.09902">
        <ele>1229</ele>
        <time>2021-08-20T19:39:32Z</time>
      </trkpt>
      <trkpt lat="42.85897" lon="1.09923">
        <ele>1230</ele>
        <time>2021-08-20T19:39:38Z</time>
      </trkpt>
      <trkpt lat="42.85911" lon="1.09928">
        <ele>1228</ele>
        <time>2021-08-20T19:39:40Z</time>
      </trkpt>
      <trkpt lat="42.85926" lon="1.09939">
        <ele>1229</ele>
        <time>2021-08-20T19:39:43Z</time>
      </trkpt>
      <trkpt lat="42.8594" lon="1.09969">
        <ele>1234</ele>
        <time>2021-08-20T19:39:48Z</time>
      </trkpt>
      <trkpt lat="42.85973" lon="1.10071">
        <ele>1245</ele>
        <time>2021-08-20T19:40:02Z</time>
      </trkpt>
      <trkpt lat="42.8598" lon="1.10084">
        <ele>1245</ele>
        <time>2021-08-20T19:40:05Z</time>
      </trkpt>
      <trkpt lat="42.85997" lon="1.10105">
        <ele>1246</ele>
        <time>2021-08-20T19:40:09Z</time>
      </trkpt>
      <trkpt lat="42.86011" lon="1.10121">
        <ele>1250</ele>
        <time>2021-08-20T19:40:12Z</time>
      </trkpt>
      <trkpt lat="42.86026" lon="1.10132">
        <ele>1252</ele>
        <time>2021-08-20T19:40:15Z</time>
      </trkpt>
      <trkpt lat="42.86078" lon="1.10156">
        <ele>1256</ele>
        <time>2021-08-20T19:40:25Z</time>
      </trkpt>
      <trkpt lat="42.86127" lon="1.10176">
        <ele>1261</ele>
        <time>2021-08-20T19:40:34Z</time>
      </trkpt>
      <trkpt lat="42.86137" lon="1.10176">
        <ele>1261</ele>
        <time>2021-08-20T19:40:36Z</time>
      </trkpt>
      <trkpt lat="42.86145" lon="1.10173">
        <ele>1260</ele>
        <time>2021-08-20T19:40:37Z</time>
      </trkpt>
      <trkpt lat="42.86154" lon="1.10166">
        <ele>1258</ele>
        <time>2021-08-20T19:40:39Z</time>
      </trkpt>
      <trkpt lat="42.86171" lon="1.10145">
        <ele>1252</ele>
        <time>2021-08-20T19:40:43Z</time>
      </trkpt>
      <trkpt lat="42.86179" lon="1.10141">
        <ele>1250</ele>
        <time>2021-08-20T19:40:44Z</time>
      </trkpt>
      <trkpt lat="42.86185" lon="1.1014">
        <ele>1249</ele>
        <time>2021-08-20T19:40:46Z</time>
      </trkpt>
      <trkpt lat="42.86196" lon="1.10149">
        <ele>1248</ele>
        <time>2021-08-20T19:40:48Z</time>
      </trkpt>
      <trkpt lat="42.86203" lon="1.10163">
        <ele>1250</ele>
        <time>2021-08-20T19:40:50Z</time>
      </trkpt>
      <trkpt lat="42.86213" lon="1.10193">
        <ele>1255</ele>
        <time>2021-08-20T19:40:54Z</time>
      </trkpt>
      <trkpt lat="42.86221" lon="1.10229">
        <ele>1260</ele>
        <time>2021-08-20T19:40:59Z</time>
      </trkpt>
      <trkpt lat="42.86221" lon="1.10247">
        <ele>1264</ele>
        <time>2021-08-20T19:41:02Z</time>
      </trkpt>
      <trkpt lat="42.86215" lon="1.10311">
        <ele>1280</ele>
        <time>2021-08-20T19:41:10Z</time>
      </trkpt>
      <trkpt lat="42.86216" lon="1.10324">
        <ele>1283</ele>
        <time>2021-08-20T19:41:12Z</time>
      </trkpt>
      <trkpt lat="42.8622" lon="1.10334">
        <ele>1284</ele>
        <time>2021-08-20T19:41:13Z</time>
      </trkpt>
      <trkpt lat="42.86225" lon="1.1034">
        <ele>1284</ele>
        <time>2021-08-20T19:41:14Z</time>
      </trkpt>
      <trkpt lat="42.86231" lon="1.10343">
        <ele>1284</ele>
        <time>2021-08-20T19:41:16Z</time>
      </trkpt>
      <trkpt lat="42.86248" lon="1.10344">
        <ele>1280</ele>
        <time>2021-08-20T19:41:19Z</time>
      </trkpt>
      <trkpt lat="42.86286" lon="1.10337">
        <ele>1279</ele>
        <time>2021-08-20T19:41:25Z</time>
      </trkpt>
      <trkpt lat="42.86314" lon="1.10335">
        <ele>1280</ele>
        <time>2021-08-20T19:41:30Z</time>
      </trkpt>
      <trkpt lat="42.86352" lon="1.10334">
        <ele>1284</ele>
        <time>2021-08-20T19:41:37Z</time>
      </trkpt>
      <trkpt lat="42.86407" lon="1.10337">
        <ele>1293</ele>
        <time>2021-08-20T19:41:47Z</time>
      </trkpt>
      <trkpt lat="42.86416" lon="1.10335">
        <ele>1293</ele>
        <time>2021-08-20T19:41:49Z</time>
      </trkpt>
      <trkpt lat="42.86435" lon="1.10325">
        <ele>1297</ele>
        <time>2021-08-20T19:41:52Z</time>
      </trkpt>
      <trkpt lat="42.86446" lon="1.10315">
        <ele>1299</ele>
        <time>2021-08-20T19:41:54Z</time>
      </trkpt>
      <trkpt lat="42.86473" lon="1.10273">
        <ele>1297</ele>
        <time>2021-08-20T19:42:02Z</time>
      </trkpt>
      <trkpt lat="42.86528" lon="1.10205">
        <ele>1307</ele>
        <time>2021-08-20T19:42:15Z</time>
      </trkpt>
      <trkpt lat="42.86539" lon="1.10188">
        <ele>1308</ele>
        <time>2021-08-20T19:42:18Z</time>
      </trkpt>
      <trkpt lat="42.86545" lon="1.10175">
        <ele>1308</ele>
        <time>2021-08-20T19:42:20Z</time>
      </trkpt>
      <trkpt lat="42.86548" lon="1.1016">
        <ele>1307</ele>
        <time>2021-08-20T19:42:22Z</time>
      </trkpt>
      <trkpt lat="42.8655" lon="1.1011">
        <ele>1303</ele>
        <time>2021-08-20T19:42:29Z</time>
      </trkpt>
      <trkpt lat="42.86553" lon="1.10093">
        <ele>1303</ele>
        <time>2021-08-20T19:42:31Z</time>
      </trkpt>
      <trkpt lat="42.86559" lon="1.10076">
        <ele>1304</ele>
        <time>2021-08-20T19:42:33Z</time>
      </trkpt>
      <trkpt lat="42.86571" lon="1.10056">
        <ele>1305</ele>
        <time>2021-08-20T19:42:37Z</time>
      </trkpt>
      <trkpt lat="42.86587" lon="1.10038">
        <ele>1309</ele>
        <time>2021-08-20T19:42:40Z</time>
      </trkpt>
      <trkpt lat="42.86602" lon="1.10027">
        <ele>1312</ele>
        <time>2021-08-20T19:42:43Z</time>
      </trkpt>
      <trkpt lat="42.86613" lon="1.10021">
        <ele>1314</ele>
        <time>2021-08-20T19:42:45Z</time>
      </trkpt>
      <trkpt lat="42.86618" lon="1.10021">
        <ele>1316</ele>
        <time>2021-08-20T19:42:46Z</time>
      </trkpt>
      <trkpt lat="42.86622" lon="1.10025">
        <ele>1319</ele>
        <time>2021-08-20T19:42:47Z</time>
      </trkpt>
      <trkpt lat="42.86622" lon="1.10031">
        <ele>1321</ele>
        <time>2021-08-20T19:42:48Z</time>
      </trkpt>
      <trkpt lat="42.8662" lon="1.10037">
        <ele>1322</ele>
        <time>2021-08-20T19:42:49Z</time>
      </trkpt>
      <trkpt lat="42.86614" lon="1.10044">
        <ele>1322</ele>
        <time>2021-08-20T19:42:50Z</time>
      </trkpt>
      <trkpt lat="42.86603" lon="1.10051">
        <ele>1319</ele>
        <time>2021-08-20T19:42:52Z</time>
      </trkpt>
      <trkpt lat="42.86592" lon="1.10062">
        <ele>1317</ele>
        <time>2021-08-20T19:42:55Z</time>
      </trkpt>
      <trkpt lat="42.86586" lon="1.10072">
        <ele>1317</ele>
        <time>2021-08-20T19:42:57Z</time>
      </trkpt>
      <trkpt lat="42.86581" lon="1.10084">
        <ele>1317</ele>
        <time>2021-08-20T19:42:58Z</time>
      </trkpt>
      <trkpt lat="42.86579" lon="1.101">
        <ele>1317</ele>
        <time>2021-08-20T19:43:00Z</time>
      </trkpt>
      <trkpt lat="42.86579" lon="1.10113">
        <ele>1319</ele>
        <time>2021-08-20T19:43:02Z</time>
      </trkpt>
      <trkpt lat="42.86583" lon="1.10145">
        <ele>1324</ele>
        <time>2021-08-20T19:43:06Z</time>
      </trkpt>
      <trkpt lat="42.86583" lon="1.10169">
        <ele>1326</ele>
        <time>2021-08-20T19:43:10Z</time>
      </trkpt>
      <trkpt lat="42.86581" lon="1.10194">
        <ele>1333</ele>
        <time>2021-08-20T19:43:13Z</time>
      </trkpt>
      <trkpt lat="42.86575" lon="1.10231">
        <ele>1340</ele>
        <time>2021-08-20T19:43:18Z</time>
      </trkpt>
      <trkpt lat="42.86569" lon="1.10245">
        <ele>1340</ele>
        <time>2021-08-20T19:43:20Z</time>
      </trkpt>
      <trkpt lat="42.86535" lon="1.10305">
        <ele>1338</ele>
        <time>2021-08-20T19:43:30Z</time>
      </trkpt>
      <trkpt lat="42.86513" lon="1.10353">
        <ele>1338</ele>
        <time>2021-08-20T19:43:37Z</time>
      </trkpt>
      <trkpt lat="42.86493" lon="1.10431">
        <ele>1349</ele>
        <time>2021-08-20T19:43:48Z</time>
      </trkpt>
      <trkpt lat="42.86482" lon="1.10483">
        <ele>1360</ele>
        <time>2021-08-20T19:43:55Z</time>
      </trkpt>
      <trkpt lat="42.86479" lon="1.1049">
        <ele>1362</ele>
        <time>2021-08-20T19:43:56Z</time>
      </trkpt>
      <trkpt lat="42.86473" lon="1.10497">
        <ele>1362</ele>
        <time>2021-08-20T19:43:57Z</time>
      </trkpt>
      <trkpt lat="42.86438" lon="1.10509">
        <ele>1359</ele>
        <time>2021-08-20T19:44:04Z</time>
      </trkpt>
      <trkpt lat="42.86375" lon="1.1052">
        <ele>1355</ele>
        <time>2021-08-20T19:44:15Z</time>
      </trkpt>
      <trkpt lat="42.86357" lon="1.10526">
        <ele>1356</ele>
        <time>2021-08-20T19:44:18Z</time>
      </trkpt>
      <trkpt lat="42.86322" lon="1.10542">
        <ele>1360</ele>
        <time>2021-08-20T19:44:25Z</time>
      </trkpt>
      <trkpt lat="42.8625" lon="1.10579">
        <ele>1366</ele>
        <time>2021-08-20T19:44:39Z</time>
      </trkpt>
      <trkpt lat="42.86176" lon="1.10622">
        <ele>1380</ele>
        <time>2021-08-20T19:44:53Z</time>
      </trkpt>
      <trkpt lat="42.86142" lon="1.10622">
        <ele>1383</ele>
        <time>2021-08-20T19:44:59Z</time>
      </trkpt>
      <trkpt lat="42.86104" lon="1.10608">
        <ele>1384</ele>
        <time>2021-08-20T19:45:06Z</time>
      </trkpt>
      <trkpt lat="42.86088" lon="1.10599">
        <ele>1384</ele>
        <time>2021-08-20T19:45:09Z</time>
      </trkpt>
      <trkpt lat="42.86077" lon="1.10591">
        <ele>1384</ele>
        <time>2021-08-20T19:45:11Z</time>
      </trkpt>
      <trkpt lat="42.86063" lon="1.10575">
        <ele>1384</ele>
        <time>2021-08-20T19:45:15Z</time>
      </trkpt>
      <trkpt lat="42.86046" lon="1.10549">
        <ele>1383</ele>
        <time>2021-08-20T19:45:19Z</time>
      </trkpt>
      <trkpt lat="42.86014" lon="1.10492">
        <ele>1382</ele>
        <time>2021-08-20T19:45:29Z</time>
      </trkpt>
      <trkpt lat="42.86006" lon="1.1048">
        <ele>1382</ele>
        <time>2021-08-20T19:45:31Z</time>
      </trkpt>
      <trkpt lat="42.85997" lon="1.10472">
        <ele>1382</ele>
        <time>2021-08-20T19:45:33Z</time>
      </trkpt>
      <trkpt lat="42.85987" lon="1.10467">
        <ele>1382</ele>
        <time>2021-08-20T19:45:34Z</time>
      </trkpt>
      <trkpt lat="42.85975" lon="1.10464">
        <ele>1382</ele>
        <time>2021-08-20T19:45:37Z</time>
      </trkpt>
      <trkpt lat="42.85965" lon="1.10464">
        <ele>1382</ele>
        <time>2021-08-20T19:45:38Z</time>
      </trkpt>
      <trkpt lat="42.85951" lon="1.10469">
        <ele>1385</ele>
        <time>2021-08-20T19:45:41Z</time>
      </trkpt>
      <trkpt lat="42.85911" lon="1.1049">
        <ele>1392</ele>
        <time>2021-08-20T19:45:49Z</time>
      </trkpt>
      <trkpt lat="42.8589" lon="1.10499">
        <ele>1393</ele>
        <time>2021-08-20T19:45:53Z</time>
      </trkpt>
      <trkpt lat="42.85874" lon="1.10503">
        <ele>1393</ele>
        <time>2021-08-20T19:45:55Z</time>
      </trkpt>
      <trkpt lat="42.85853" lon="1.10504">
        <ele>1392</ele>
        <time>2021-08-20T19:45:59Z</time>
      </trkpt>
      <trkpt lat="42.85837" lon="1.10507">
        <ele>1391</ele>
        <time>2021-08-20T19:46:02Z</time>
      </trkpt>
      <trkpt lat="42.85789" lon="1.1053">
        <ele>1387</ele>
        <time>2021-08-20T19:46:11Z</time>
      </trkpt>
      <trkpt lat="42.85778" lon="1.10534">
        <ele>1386</ele>
        <time>2021-08-20T19:46:13Z</time>
      </trkpt>
      <trkpt lat="42.85745" lon="1.10536">
        <ele>1386</ele>
        <time>2021-08-20T19:46:19Z</time>
      </trkpt>
      <trkpt lat="42.85697" lon="1.10533">
        <ele>1385</ele>
        <time>2021-08-20T19:46:28Z</time>
      </trkpt>
      <trkpt lat="42.85645" lon="1.10538">
        <ele>1389</ele>
        <time>2021-08-20T19:46:37Z</time>
      </trkpt>
      <trkpt lat="42.85634" lon="1.10541">
        <ele>1392</ele>
        <time>2021-08-20T19:46:39Z</time>
      </trkpt>
      <trkpt lat="42.85625" lon="1.10547">
        <ele>1393</ele>
        <time>2021-08-20T19:46:41Z</time>
      </trkpt>
      <trkpt lat="42.8562" lon="1.10553">
        <ele>1393</ele>
        <time>2021-08-20T19:46:42Z</time>
      </trkpt>
      <trkpt lat="42.85613" lon="1.10565">
        <ele>1393</ele>
        <time>2021-08-20T19:46:44Z</time>
      </trkpt>
      <trkpt lat="42.85607" lon="1.10586">
        <ele>1391</ele>
        <time>2021-08-20T19:46:47Z</time>
      </trkpt>
      <trkpt lat="42.85599" lon="1.10634">
        <ele>1387</ele>
        <time>2021-08-20T19:46:53Z</time>
      </trkpt>
    </trkseg>
  </trk>
</gpx>